sensor_id;sensor_type;location;lat;lon;timestamp;pressure;altitude;pressure_sealevel;temperature;humidity
61805;BME280;47725;47.912;7.356;2022-07-31T00:00:44;99512.38;;;28.87;41.85
61805;BME280;47725;47.912;7.356;2022-07-31T00:04:44;99512.06;;;28.88;41.62
61805;BME280;47725;47.912;7.356;2022-07-31T00:08:44;99511.52;;;28.90;41.55
61805;BME280;47725;47.912;7.356;2022-07-31T00:12:44;99511.01;;;28.90;41.72
61805;BME280;47725;47.912;7.356;2022-07-31T00:16:44;99511.06;;;28.89;41.68
61805;BME280;47725;47.912;7.356;2022-07-31T00:20:44;99511.27;;;28.90;41.58
61805;BME280;47725;47.912;7.356;2022-07-31T00:24:44;99509.95;;;28.91;41.54
61805;BME280;47725;47.912;7.356;2022-07-31T00:28:44;99508.92;;;28.90;41.85
61805;BME280;47725;47.912;7.356;2022-07-31T00:32:44;99507.86;;;28.88;41.73
61805;BME280;47725;47.912;7.356;2022-07-31T00:36:44;99508.36;;;28.88;41.70
61805;BME280;47725;47.912;7.356;2022-07-31T00:40:45;99508.36;;;28.88;41.70
61805;BME280;47725;47.912;7.356;2022-07-31T00:44:44;99508.12;;;28.84;42.07
61805;BME280;47725;47.912;7.356;2022-07-31T00:48:44;99507.62;;;28.84;41.75
61805;BME280;47725;47.912;7.356;2022-07-31T00:52:44;99506.91;;;28.85;41.68
61805;BME280;47725;47.912;7.356;2022-07-31T00:56:44;99505.20;;;28.85;41.92
61805;BME280;47725;47.912;7.356;2022-07-31T01:00:44;99504.21;;;28.84;41.78
61805;BME280;47725;47.912;7.356;2022-07-31T01:04:44;99503.36;;;28.85;41.68
61805;BME280;47725;47.912;7.356;2022-07-31T01:08:44;99502.31;;;28.86;41.69
61805;BME280;47725;47.912;7.356;2022-07-31T01:12:46;99500.73;;;28.83;42.03
61805;BME280;47725;47.912;7.356;2022-07-31T01:16:47;99499.06;;;28.83;41.74
61805;BME280;47725;47.912;7.356;2022-07-31T01:20:44;99497.76;;;28.84;41.76
61805;BME280;47725;47.912;7.356;2022-07-31T01:32:46;99493.61;;;28.85;41.64
61805;BME280;47725;47.912;7.356;2022-07-31T01:36:46;99491.24;;;28.85;41.82
61805;BME280;47725;47.912;7.356;2022-07-31T01:40:45;99489.70;;;28.83;41.79
61805;BME280;47725;47.912;7.356;2022-07-31T01:44:45;99489.78;;;28.83;41.63
61805;BME280;47725;47.912;7.356;2022-07-31T01:48:44;99490.48;;;28.85;41.59
61805;BME280;47725;47.912;7.356;2022-07-31T01:52:44;99489.95;;;28.82;41.92
61805;BME280;47725;47.912;7.356;2022-07-31T01:56:44;99489.45;;;28.82;41.63
61805;BME280;47725;47.912;7.356;2022-07-31T02:00:44;99488.36;;;28.83;41.58
61805;BME280;47725;47.912;7.356;2022-07-31T02:04:44;99489.03;;;28.83;41.81
61805;BME280;47725;47.912;7.356;2022-07-31T02:08:44;99490.39;;;28.80;41.87
61805;BME280;47725;47.912;7.356;2022-07-31T02:12:44;99491.03;;;28.78;41.90
61805;BME280;47725;47.912;7.356;2022-07-31T02:16:44;99491.92;;;28.76;41.90
61805;BME280;47725;47.912;7.356;2022-07-31T02:20:44;99492.25;;;28.71;42.23
61805;BME280;47725;47.912;7.356;2022-07-31T02:24:44;99492.22;;;28.70;41.96
61805;BME280;47725;47.912;7.356;2022-07-31T02:28:44;99492.19;;;28.69;41.93
61805;BME280;47725;47.912;7.356;2022-07-31T02:32:45;99492.33;;;28.67;42.20
61805;BME280;47725;47.912;7.356;2022-07-31T02:36:44;99492.18;;;28.65;42.03
61805;BME280;47725;47.912;7.356;2022-07-31T02:40:44;99492.10;;;28.64;41.96
61805;BME280;47725;47.912;7.356;2022-07-31T02:44:44;99492.27;;;28.65;41.92
61805;BME280;47725;47.912;7.356;2022-07-31T02:48:44;99492.03;;;28.62;42.27
61805;BME280;47725;47.912;7.356;2022-07-31T02:52:44;99492.28;;;28.61;41.97
61805;BME280;47725;47.912;7.356;2022-07-31T02:56:44;99492.53;;;28.62;41.96
61805;BME280;47725;47.912;7.356;2022-07-31T03:00:44;99492.75;;;28.60;42.19
61805;BME280;47725;47.912;7.356;2022-07-31T03:04:44;99493.25;;;28.60;41.94
61805;BME280;47725;47.912;7.356;2022-07-31T03:08:44;99492.95;;;28.61;41.88
61805;BME280;47725;47.912;7.356;2022-07-31T03:12:45;99492.81;;;28.62;41.86
61805;BME280;47725;47.912;7.356;2022-07-31T03:16:44;99492.00;;;28.59;42.15
61805;BME280;47725;47.912;7.356;2022-07-31T03:20:44;99492.25;;;28.59;41.87
61805;BME280;47725;47.912;7.356;2022-07-31T03:24:44;99492.78;;;28.60;41.84
61805;BME280;47725;47.912;7.356;2022-07-31T03:28:44;99491.85;;;28.58;42.09
61805;BME280;47725;47.912;7.356;2022-07-31T03:32:44;99491.19;;;28.58;41.87
61805;BME280;47725;47.912;7.356;2022-07-31T03:36:44;99489.62;;;28.59;41.81
61805;BME280;47725;47.912;7.356;2022-07-31T03:40:44;99487.98;;;28.59;41.84
61805;BME280;47725;47.912;7.356;2022-07-31T03:44:44;99486.55;;;28.57;42.07
61805;BME280;47725;47.912;7.356;2022-07-31T03:48:44;99485.64;;;28.57;41.82
61805;BME280;47725;47.912;7.356;2022-07-31T03:52:45;99485.08;;;28.58;41.78
61805;BME280;47725;47.912;7.356;2022-07-31T03:56:45;99485.30;;;28.56;42.04
61805;BME280;47725;47.912;7.356;2022-07-31T04:00:44;99487.11;;;28.55;41.87
61805;BME280;47725;47.912;7.356;2022-07-31T04:04:44;99488.87;;;28.55;41.83
61805;BME280;47725;47.912;7.356;2022-07-31T04:08:44;99491.04;;;28.55;41.83
61805;BME280;47725;47.912;7.356;2022-07-31T04:12:44;99493.48;;;28.52;42.09
61805;BME280;47725;47.912;7.356;2022-07-31T04:16:44;99496.74;;;28.52;41.97
61805;BME280;47725;47.912;7.356;2022-07-31T04:20:44;99499.50;;;28.52;41.89
61805;BME280;47725;47.912;7.356;2022-07-31T04:24:44;99501.78;;;28.49;42.16
61805;BME280;47725;47.912;7.356;2022-07-31T04:28:44;99503.53;;;28.49;41.89
61805;BME280;47725;47.912;7.356;2022-07-31T04:32:44;99505.57;;;28.50;41.83
61805;BME280;47725;47.912;7.356;2022-07-31T04:36:44;99506.91;;;28.50;42.00
61805;BME280;47725;47.912;7.356;2022-07-31T04:40:44;99507.21;;;28.49;41.93
61805;BME280;47725;47.912;7.356;2022-07-31T04:44:44;99507.08;;;28.50;41.80
61805;BME280;47725;47.912;7.356;2022-07-31T04:48:44;99507.08;;;28.51;41.76
61805;BME280;47725;47.912;7.356;2022-07-31T04:52:44;99507.62;;;28.48;42.08
61805;BME280;47725;47.912;7.356;2022-07-31T04:56:44;99506.54;;;28.49;41.77
61805;BME280;47725;47.912;7.356;2022-07-31T05:00:44;99504.99;;;28.50;41.71
61805;BME280;47725;47.912;7.356;2022-07-31T05:04:44;99503.28;;;28.49;41.93
61805;BME280;47725;47.912;7.356;2022-07-31T05:08:44;99503.25;;;28.48;41.85
61805;BME280;47725;47.912;7.356;2022-07-31T05:12:44;99504.21;;;28.48;41.76
61805;BME280;47725;47.912;7.356;2022-07-31T05:16:44;99504.03;;;28.49;41.72
61805;BME280;47725;47.912;7.356;2022-07-31T05:20:44;99504.72;;;28.46;42.02
61805;BME280;47725;47.912;7.356;2022-07-31T05:24:44;99506.05;;;28.46;41.78
61805;BME280;47725;47.912;7.356;2022-07-31T05:28:44;99506.51;;;28.47;41.68
61805;BME280;47725;47.912;7.356;2022-07-31T05:32:44;99506.98;;;28.46;41.89
61805;BME280;47725;47.912;7.356;2022-07-31T05:36:44;99508.03;;;28.44;41.85
61805;BME280;47725;47.912;7.356;2022-07-31T05:40:44;99508.62;;;28.44;41.74
61805;BME280;47725;47.912;7.356;2022-07-31T05:44:44;99508.40;;;28.46;41.59
61805;BME280;47725;47.912;7.356;2022-07-31T05:48:44;99509.15;;;28.45;41.85
61805;BME280;47725;47.912;7.356;2022-07-31T05:52:44;99507.01;;;28.47;41.61
61805;BME280;47725;47.912;7.356;2022-07-31T05:56:44;99505.17;;;28.47;41.84
61805;BME280;47725;47.912;7.356;2022-07-31T06:00:44;99504.77;;;28.43;42.08
61805;BME280;47725;47.912;7.356;2022-07-31T06:04:44;99503.23;;;28.42;41.84
61805;BME280;47725;47.912;7.356;2022-07-31T06:08:44;99502.06;;;28.43;41.77
61805;BME280;47725;47.912;7.356;2022-07-31T06:12:44;99500.98;;;28.42;41.94
61805;BME280;47725;47.912;7.356;2022-07-31T06:16:44;99500.86;;;28.40;41.95
61805;BME280;47725;47.912;7.356;2022-07-31T06:20:44;99498.86;;;28.41;41.76
61805;BME280;47725;47.912;7.356;2022-07-31T06:24:44;99497.88;;;28.42;41.68
61805;BME280;47725;47.912;7.356;2022-07-31T06:28:44;99499.56;;;28.42;41.95
61805;BME280;47725;47.912;7.356;2022-07-31T06:32:44;99502.11;;;28.41;41.80
61805;BME280;47725;47.912;7.356;2022-07-31T06:36:44;99503.03;;;28.41;41.76
61805;BME280;47725;47.912;7.356;2022-07-31T06:40:44;99504.21;;;28.41;41.90
61805;BME280;47725;47.912;7.356;2022-07-31T06:44:44;99504.92;;;28.40;41.82
61805;BME280;47725;47.912;7.356;2022-07-31T06:48:44;99504.53;;;28.41;41.71
61805;BME280;47725;47.912;7.356;2022-07-31T06:52:44;99503.91;;;28.42;41.71
61805;BME280;47725;47.912;7.356;2022-07-31T06:56:44;99504.21;;;28.40;42.04
61805;BME280;47725;47.912;7.356;2022-07-31T07:00:44;99504.88;;;28.41;41.76
61805;BME280;47725;47.912;7.356;2022-07-31T07:04:44;99503.40;;;28.42;41.70
61805;BME280;47725;47.912;7.356;2022-07-31T07:08:44;99502.03;;;28.41;41.91
61805;BME280;47725;47.912;7.356;2022-07-31T07:12:44;99500.66;;;28.40;41.83
61805;BME280;47725;47.912;7.356;2022-07-31T07:16:44;99500.45;;;28.41;41.77
61805;BME280;47725;47.912;7.356;2022-07-31T07:20:44;99498.86;;;28.41;41.76
61805;BME280;47725;47.912;7.356;2022-07-31T07:24:44;99498.21;;;28.39;42.11
61805;BME280;47725;47.912;7.356;2022-07-31T07:28:44;99496.73;;;28.39;41.83
61805;BME280;47725;47.912;7.356;2022-07-31T07:32:44;99494.06;;;28.40;41.83
61805;BME280;47725;47.912;7.356;2022-07-31T07:36:44;99491.97;;;28.39;42.06
61805;BME280;47725;47.912;7.356;2022-07-31T07:40:44;99491.02;;;28.38;41.95
61805;BME280;47725;47.912;7.356;2022-07-31T07:44:44;99489.01;;;28.39;41.83
61805;BME280;47725;47.912;7.356;2022-07-31T07:48:44;99487.20;;;28.40;41.77
61805;BME280;47725;47.912;7.356;2022-07-31T07:52:44;99485.25;;;28.38;42.10
61805;BME280;47725;47.912;7.356;2022-07-31T07:56:44;99484.11;;;28.39;41.71
61805;BME280;47725;47.912;7.356;2022-07-31T08:00:44;99482.84;;;28.42;41.63
61805;BME280;47725;47.912;7.356;2022-07-31T08:04:44;99480.92;;;28.43;41.81
61805;BME280;47725;47.912;7.356;2022-07-31T08:08:44;99478.66;;;28.42;41.87
61805;BME280;47725;47.912;7.356;2022-07-31T08:12:44;99477.71;;;28.42;41.90
61805;BME280;47725;47.912;7.356;2022-07-31T08:16:44;99477.03;;;28.43;41.68
61805;BME280;47725;47.912;7.356;2022-07-31T08:20:44;99476.15;;;28.42;41.97
61805;BME280;47725;47.912;7.356;2022-07-31T08:24:44;99474.19;;;28.43;41.71
61805;BME280;47725;47.912;7.356;2022-07-31T08:28:44;99473.02;;;28.43;41.87
61805;BME280;47725;47.912;7.356;2022-07-31T08:32:44;99472.01;;;28.43;41.90
61805;BME280;47725;47.912;7.356;2022-07-31T08:36:44;99470.81;;;28.42;41.95
61805;BME280;47725;47.912;7.356;2022-07-31T08:40:44;99468.97;;;28.42;41.83
61805;BME280;47725;47.912;7.356;2022-07-31T08:44:44;99466.55;;;28.43;41.81
61805;BME280;47725;47.912;7.356;2022-07-31T08:48:44;99465.37;;;28.42;42.05
61805;BME280;47725;47.912;7.356;2022-07-31T08:52:44;99464.09;;;28.41;41.88
61805;BME280;47725;47.912;7.356;2022-07-31T08:56:44;99461.78;;;28.42;41.82
61805;BME280;47725;47.912;7.356;2022-07-31T09:00:44;99459.52;;;28.43;41.93
61805;BME280;47725;47.912;7.356;2022-07-31T09:04:44;99458.52;;;28.43;41.80
61805;BME280;47725;47.912;7.356;2022-07-31T09:08:44;99459.00;;;28.45;41.67
61805;BME280;47725;47.912;7.356;2022-07-31T09:12:44;99459.81;;;28.48;41.62
61805;BME280;47725;47.912;7.356;2022-07-31T09:16:44;99460.38;;;28.48;41.93
61805;BME280;47725;47.912;7.356;2022-07-31T09:21:00;99460.49;;;28.48;41.71
61805;BME280;47725;47.912;7.356;2022-07-31T09:24:44;99460.94;;;28.50;41.66
61805;BME280;47725;47.912;7.356;2022-07-31T09:28:44;99461.11;;;28.50;41.90
61805;BME280;47725;47.912;7.356;2022-07-31T09:32:44;99459.85;;;28.50;41.69
61805;BME280;47725;47.912;7.356;2022-07-31T09:36:44;99458.96;;;28.52;41.61
61805;BME280;47725;47.912;7.356;2022-07-31T09:40:44;99457.73;;;28.53;41.64
61805;BME280;47725;47.912;7.356;2022-07-31T09:44:45;99455.78;;;28.52;41.88
61805;BME280;47725;47.912;7.356;2022-07-31T09:48:48;99454.22;;;28.53;41.61
61805;BME280;47725;47.912;7.356;2022-07-31T09:52:43;99453.88;;;28.56;41.39
61805;BME280;47725;47.912;7.356;2022-07-31T09:56:43;99453.45;;;28.57;41.69
61805;BME280;47725;47.912;7.356;2022-07-31T10:00:45;99453.45;;;28.57;41.49
61805;BME280;47725;47.912;7.356;2022-07-31T10:04:43;99452.04;;;28.60;41.31
61805;BME280;47725;47.912;7.356;2022-07-31T10:08:43;99450.76;;;28.63;41.11
61805;BME280;47725;47.912;7.356;2022-07-31T10:12:45;99448.71;;;28.65;41.37
61805;BME280;47725;47.912;7.356;2022-07-31T10:16:43;99447.55;;;28.69;41.01
61805;BME280;47725;47.912;7.356;2022-07-31T10:20:51;99445.40;;;28.75;40.88
61805;BME280;47725;47.912;7.356;2022-07-31T10:24:44;99441.92;;;28.77;41.17
61805;BME280;47725;47.912;7.356;2022-07-31T10:28:43;99438.97;;;28.79;40.89
61805;BME280;47725;47.912;7.356;2022-07-31T10:32:43;99436.56;;;28.82;40.95
61805;BME280;47725;47.912;7.356;2022-07-31T10:36:44;99432.95;;;28.84;40.92
61805;BME280;47725;47.912;7.356;2022-07-31T10:40:46;99427.82;;;28.83;41.22
61805;BME280;47725;47.912;7.356;2022-07-31T10:44:50;99422.83;;;28.84;40.99
61805;BME280;47725;47.912;7.356;2022-07-31T10:48:52;99416.92;;;28.85;40.97
61805;BME280;47725;47.912;7.356;2022-07-31T10:52:43;99411.21;;;28.85;41.25
61805;BME280;47725;47.912;7.356;2022-07-31T10:56:44;99405.60;;;28.85;41.01
61805;BME280;47725;47.912;7.356;2022-07-31T11:00:43;99401.06;;;28.87;40.88
61805;BME280;47725;47.912;7.356;2022-07-31T11:04:43;99396.20;;;28.87;41.15
61805;BME280;47725;47.912;7.356;2022-07-31T11:08:44;99392.05;;;28.88;40.89
61805;BME280;47725;47.912;7.356;2022-07-31T11:12:44;99388.09;;;28.92;40.71
61805;BME280;47725;47.912;7.356;2022-07-31T11:16:50;99383.86;;;28.93;41.08
61805;BME280;47725;47.912;7.356;2022-07-31T11:20:44;99379.89;;;28.93;40.89
61805;BME280;47725;47.912;7.356;2022-07-31T11:24:53;99376.26;;;28.95;40.79
61805;BME280;47725;47.912;7.356;2022-07-31T11:28:43;99372.87;;;28.97;40.90
61805;BME280;47725;47.912;7.356;2022-07-31T11:32:50;99368.86;;;28.96;40.93
61805;BME280;47725;47.912;7.356;2022-07-31T11:36:43;99365.48;;;28.99;40.72
61805;BME280;47725;47.912;7.356;2022-07-31T11:40:48;99362.35;;;29.02;40.71
61805;BME280;47725;47.912;7.356;2022-07-31T11:44:43;99358.28;;;28.99;41.10
61805;BME280;47725;47.912;7.356;2022-07-31T11:48:43;99355.72;;;29.01;40.77
61805;BME280;47725;47.912;7.356;2022-07-31T11:52:43;99352.98;;;29.02;40.73
61805;BME280;47725;47.912;7.356;2022-07-31T11:56:43;99349.11;;;29.01;40.97
61805;BME280;47725;47.912;7.356;2022-07-31T12:01:02;99345.70;;;29.03;40.67
61805;BME280;47725;47.912;7.356;2022-07-31T12:04:43;99341.01;;;29.07;40.48
61805;BME280;47725;47.912;7.356;2022-07-31T12:08:44;99336.19;;;29.08;40.78
61805;BME280;47725;47.912;7.356;2022-07-31T12:12:43;99332.61;;;29.10;40.47
61805;BME280;47725;47.912;7.356;2022-07-31T12:16:43;99329.32;;;29.13;40.42
61805;BME280;47725;47.912;7.356;2022-07-31T12:20:50;99327.27;;;29.16;40.40
61805;BME280;47725;47.912;7.356;2022-07-31T12:24:43;99325.30;;;29.13;40.76
61805;BME280;47725;47.912;7.356;2022-07-31T12:28:43;99323.49;;;29.15;40.44
61805;BME280;47725;47.912;7.356;2022-07-31T12:32:43;99321.08;;;29.17;40.40
61805;BME280;47725;47.912;7.356;2022-07-31T12:36:43;99318.31;;;29.16;40.71
61805;BME280;47725;47.912;7.356;2022-07-31T12:40:43;99315.45;;;29.15;40.48
61805;BME280;47725;47.912;7.356;2022-07-31T12:44:49;99313.12;;;29.17;40.41
61805;BME280;47725;47.912;7.356;2022-07-31T12:48:43;99309.47;;;29.18;40.43
61805;BME280;47725;47.912;7.356;2022-07-31T12:52:43;99304.24;;;29.14;40.84
61805;BME280;47725;47.912;7.356;2022-07-31T12:56:44;99299.61;;;29.14;40.67
61805;BME280;47725;47.912;7.356;2022-07-31T13:00:43;99294.12;;;29.14;40.55
61805;BME280;47725;47.912;7.356;2022-07-31T13:04:43;99288.16;;;29.13;40.74
61805;BME280;47725;47.912;7.356;2022-07-31T13:08:43;99284.36;;;29.12;40.61
61805;BME280;47725;47.912;7.356;2022-07-31T13:12:43;99281.29;;;29.14;40.48
61805;BME280;47725;47.912;7.356;2022-07-31T13:16:44;99277.98;;;29.16;40.46
61805;BME280;47725;47.912;7.356;2022-07-31T13:20:43;99273.60;;;29.14;40.91
61805;BME280;47725;47.912;7.356;2022-07-31T13:24:43;99269.17;;;29.13;40.72
61805;BME280;47725;47.912;7.356;2022-07-31T13:28:43;99265.14;;;29.13;40.67
61805;BME280;47725;47.912;7.356;2022-07-31T13:32:43;99261.49;;;29.14;40.65
61805;BME280;47725;47.912;7.356;2022-07-31T13:36:43;99255.89;;;29.11;41.01
61805;BME280;47725;47.912;7.356;2022-07-31T13:40:43;99252.12;;;29.11;40.75
61805;BME280;47725;47.912;7.356;2022-07-31T13:44:43;99249.05;;;29.12;40.67
61805;BME280;47725;47.912;7.356;2022-07-31T13:48:43;99244.20;;;29.12;40.91
61805;BME280;47725;47.912;7.356;2022-07-31T13:52:43;99238.33;;;29.11;40.71
61805;BME280;47725;47.912;7.356;2022-07-31T13:56:43;99233.91;;;29.12;40.65
61805;BME280;47725;47.912;7.356;2022-07-31T14:00:43;99229.78;;;29.14;40.62
61805;BME280;47725;47.912;7.356;2022-07-31T14:04:43;99223.54;;;29.12;40.95
61805;BME280;47725;47.912;7.356;2022-07-31T14:08:43;99218.19;;;29.12;40.70
61805;BME280;47725;47.912;7.356;2022-07-31T14:12:43;99213.26;;;29.14;40.61
61805;BME280;47725;47.912;7.356;2022-07-31T14:16:43;99208.84;;;29.14;40.75
61805;BME280;47725;47.912;7.356;2022-07-31T14:20:44;99204.30;;;29.12;40.76
61805;BME280;47725;47.912;7.356;2022-07-31T14:24:43;99200.14;;;29.13;40.63
61805;BME280;47725;47.912;7.356;2022-07-31T14:28:43;99195.98;;;29.14;40.62
61805;BME280;47725;47.912;7.356;2022-07-31T14:32:43;99191.33;;;29.12;40.93
61805;BME280;47725;47.912;7.356;2022-07-31T14:36:43;99188.49;;;29.12;40.72
61805;BME280;47725;47.912;7.356;2022-07-31T14:40:43;99187.43;;;29.13;40.64
61805;BME280;47725;47.912;7.356;2022-07-31T14:44:43;99184.92;;;29.13;40.84
61805;BME280;47725;47.912;7.356;2022-07-31T14:48:43;99183.81;;;29.12;40.75
61805;BME280;47725;47.912;7.356;2022-07-31T14:52:43;99182.90;;;29.13;40.65
61805;BME280;47725;47.912;7.356;2022-07-31T14:56:43;99180.58;;;29.15;40.62
61805;BME280;47725;47.912;7.356;2022-07-31T15:00:43;99178.05;;;29.14;40.96
61805;BME280;47725;47.912;7.356;2022-07-31T15:04:43;99176.06;;;29.15;40.67
61805;BME280;47725;47.912;7.356;2022-07-31T15:08:43;99172.52;;;29.18;40.62
61805;BME280;47725;47.912;7.356;2022-07-31T15:12:43;99168.02;;;29.19;40.67
61805;BME280;47725;47.912;7.356;2022-07-31T15:16:43;99162.64;;;29.18;40.83
61805;BME280;47725;47.912;7.356;2022-07-31T15:20:43;99159.14;;;29.19;40.65
61805;BME280;47725;47.912;7.356;2022-07-31T15:24:46;99156.84;;;29.21;40.59
61805;BME280;47725;47.912;7.356;2022-07-31T15:28:43;99154.66;;;29.20;40.91
61805;BME280;47725;47.912;7.356;2022-07-31T15:32:43;99153.92;;;29.21;40.60
61805;BME280;47725;47.912;7.356;2022-07-31T15:36:43;99153.72;;;29.23;40.56
61805;BME280;47725;47.912;7.356;2022-07-31T15:40:43;99152.79;;;29.24;40.76
61805;BME280;47725;47.912;7.356;2022-07-31T15:44:43;99151.87;;;29.23;40.62
61805;BME280;47725;47.912;7.356;2022-07-31T15:48:43;99150.97;;;29.25;40.54
61805;BME280;47725;47.912;7.356;2022-07-31T15:52:43;99149.98;;;29.27;40.53
61805;BME280;47725;47.912;7.356;2022-07-31T15:56:43;99146.78;;;29.26;40.81
61805;BME280;47725;47.912;7.356;2022-07-31T16:00:43;99144.22;;;29.27;40.55
61805;BME280;47725;47.912;7.356;2022-07-31T16:04:43;99141.22;;;29.28;40.46
61805;BME280;47725;47.912;7.356;2022-07-31T16:08:43;99138.12;;;29.29;40.60
61805;BME280;47725;47.912;7.356;2022-07-31T16:12:43;99133.92;;;29.27;40.68
61805;BME280;47725;47.912;7.356;2022-07-31T16:16:43;99131.09;;;29.28;40.53
61805;BME280;47725;47.912;7.356;2022-07-31T16:20:43;99128.86;;;29.30;40.50
61805;BME280;47725;47.912;7.356;2022-07-31T16:24:43;99126.57;;;29.29;40.76
61805;BME280;47725;47.912;7.356;2022-07-31T16:28:43;99125.72;;;29.28;40.56
61805;BME280;47725;47.912;7.356;2022-07-31T16:32:43;99123.72;;;29.29;40.53
61805;BME280;47725;47.912;7.356;2022-07-31T16:36:43;99122.02;;;29.31;40.49
61805;BME280;47725;47.912;7.356;2022-07-31T16:40:43;99119.87;;;29.29;40.81
61805;BME280;47725;47.912;7.356;2022-07-31T16:44:43;99117.56;;;29.30;40.52
61805;BME280;47725;47.912;7.356;2022-07-31T16:48:43;99117.49;;;29.32;40.48
61805;BME280;47725;47.912;7.356;2022-07-31T16:52:43;99116.74;;;29.32;40.65
61805;BME280;47725;47.912;7.356;2022-07-31T16:56:43;99117.22;;;29.30;40.72
61805;BME280;47725;47.912;7.356;2022-07-31T17:00:44;99117.08;;;29.31;40.54
61805;BME280;47725;47.912;7.356;2022-07-31T17:04:43;99117.35;;;29.33;40.53
61805;BME280;47725;47.912;7.356;2022-07-31T17:08:43;99118.05;;;29.30;40.89
61805;BME280;47725;47.912;7.356;2022-07-31T17:12:43;99119.00;;;29.31;40.65
61805;BME280;47725;47.912;7.356;2022-07-31T17:16:43;99119.41;;;29.32;40.58
61805;BME280;47725;47.912;7.356;2022-07-31T17:20:43;99118.75;;;29.31;40.86
61805;BME280;47725;47.912;7.356;2022-07-31T17:24:43;99118.75;;;29.31;40.65
61805;BME280;47725;47.912;7.356;2022-07-31T17:28:43;99118.59;;;29.33;40.59
61805;BME280;47725;47.912;7.356;2022-07-31T17:32:43;99118.70;;;29.35;40.56
61805;BME280;47725;47.912;7.356;2022-07-31T17:36:43;99118.77;;;29.33;40.92
61805;BME280;47725;47.912;7.356;2022-07-31T17:40:43;99119.43;;;29.33;40.65
61805;BME280;47725;47.912;7.356;2022-07-31T17:44:43;99119.70;;;29.35;40.60
61805;BME280;47725;47.912;7.356;2022-07-31T17:48:43;99120.95;;;29.35;40.79
61805;BME280;47725;47.912;7.356;2022-07-31T17:52:43;99123.02;;;29.34;40.82
61805;BME280;47725;47.912;7.356;2022-07-31T17:56:43;99124.47;;;29.34;40.68
61805;BME280;47725;47.912;7.356;2022-07-31T18:00:43;99127.48;;;29.36;40.74
61805;BME280;47725;47.912;7.356;2022-07-31T18:04:43;99129.32;;;29.33;41.07
61805;BME280;47725;47.912;7.356;2022-07-31T18:08:43;99131.98;;;29.33;40.80
61805;BME280;47725;47.912;7.356;2022-07-31T18:12:43;99134.77;;;29.34;40.73
61805;BME280;47725;47.912;7.356;2022-07-31T18:16:43;99137.27;;;29.35;40.86
61805;BME280;47725;47.912;7.356;2022-07-31T18:20:43;99139.62;;;29.34;40.84
61805;BME280;47725;47.912;7.356;2022-07-31T18:24:43;99141.99;;;29.36;40.70
61805;BME280;47725;47.912;7.356;2022-07-31T18:28:43;99145.18;;;29.38;40.66
61805;BME280;47725;47.912;7.356;2022-07-31T18:32:43;99147.34;;;29.36;40.97
61805;BME280;47725;47.912;7.356;2022-07-31T18:36:43;99150.45;;;29.38;40.64
61805;BME280;47725;47.912;7.356;2022-07-31T18:40:43;99152.56;;;29.40;40.57
61805;BME280;47725;47.912;7.356;2022-07-31T18:44:43;99154.06;;;29.40;40.87
61805;BME280;47725;47.912;7.356;2022-07-31T18:48:43;99154.99;;;29.39;40.71
61805;BME280;47725;47.912;7.356;2022-07-31T18:52:43;99155.52;;;29.41;40.59
61805;BME280;47725;47.912;7.356;2022-07-31T18:56:43;99156.19;;;29.43;40.56
61805;BME280;47725;47.912;7.356;2022-07-31T19:00:43;99156.18;;;29.41;40.89
61805;BME280;47725;47.912;7.356;2022-07-31T19:04:43;99157.34;;;29.41;40.69
61805;BME280;47725;47.912;7.356;2022-07-31T19:08:43;99158.76;;;29.41;40.67
61805;BME280;47725;47.912;7.356;2022-07-31T19:12:43;99160.44;;;29.41;40.85
61805;BME280;47725;47.912;7.356;2022-07-31T19:16:43;99162.83;;;29.39;40.88
61805;BME280;47725;47.912;7.356;2022-07-31T19:20:43;99166.63;;;29.39;40.71
61805;BME280;47725;47.912;7.356;2022-07-31T19:24:43;99170.74;;;29.41;40.68
61805;BME280;47725;47.912;7.356;2022-07-31T19:28:43;99173.80;;;29.38;41.03
61805;BME280;47725;47.912;7.356;2022-07-31T19:32:43;99177.73;;;29.38;40.78
61805;BME280;47725;47.912;7.356;2022-07-31T19:36:43;99182.78;;;29.39;40.76
61805;BME280;47725;47.912;7.356;2022-07-31T19:40:43;99187.38;;;29.39;40.96
61805;BME280;47725;47.912;7.356;2022-07-31T19:44:43;99192.27;;;29.37;40.91
61805;BME280;47725;47.912;7.356;2022-07-31T19:48:43;99197.24;;;29.38;40.82
61805;BME280;47725;47.912;7.356;2022-07-31T19:52:43;99202.03;;;29.39;40.82
61805;BME280;47725;47.912;7.356;2022-07-31T19:56:43;99207.42;;;29.36;41.20
61805;BME280;47725;47.912;7.356;2022-07-31T20:00:43;99211.86;;;29.37;40.89
61805;BME280;47725;47.912;7.356;2022-07-31T20:04:43;99217.07;;;29.38;40.88
61805;BME280;47725;47.912;7.356;2022-07-31T20:08:43;99221.67;;;29.37;41.11
61805;BME280;47725;47.912;7.356;2022-07-31T20:12:43;99227.34;;;29.36;40.94
61805;BME280;47725;47.912;7.356;2022-07-31T20:16:43;99231.89;;;29.37;40.89
61805;BME280;47725;47.912;7.356;2022-07-31T20:20:43;99235.89;;;29.38;40.83
61805;BME280;47725;47.912;7.356;2022-07-31T20:24:43;99238.70;;;29.35;41.18
61805;BME280;47725;47.912;7.356;2022-07-31T20:28:43;99241.83;;;29.36;40.84
61805;BME280;47725;47.912;7.356;2022-07-31T20:32:43;99244.94;;;29.37;40.79
61805;BME280;47725;47.912;7.356;2022-07-31T20:36:43;99247.12;;;29.37;40.97
61805;BME280;47725;47.912;7.356;2022-07-31T20:40:43;99249.61;;;29.36;40.89
61805;BME280;47725;47.912;7.356;2022-07-31T20:44:43;99252.56;;;29.38;40.79
61805;BME280;47725;47.912;7.356;2022-07-31T20:48:43;99255.25;;;29.39;40.76
61805;BME280;47725;47.912;7.356;2022-07-31T20:52:43;99257.33;;;29.37;41.10
61805;BME280;47725;47.912;7.356;2022-07-31T20:56:43;99261.06;;;29.37;40.85
61805;BME280;47725;47.912;7.356;2022-07-31T21:00:43;99264.51;;;29.38;40.82
61805;BME280;47725;47.912;7.356;2022-07-31T21:04:43;99266.39;;;29.39;40.82
61805;BME280;47725;47.912;7.356;2022-07-31T21:08:43;99267.02;;;29.36;41.13
61805;BME280;47725;47.912;7.356;2022-07-31T21:12:43;99267.52;;;29.36;40.86
61805;BME280;47725;47.912;7.356;2022-07-31T21:16:43;99268.27;;;29.37;40.84